Time;durP1;ratioP1;P1;durP2;ratioP2;P2;SDS_P1;SDS_P2;PMS_P1;PMS_P2;Temp;Humidity;BMP_temperature;BMP_pressure;BME280_temperature;BME280_humidity;BME280_pressure;Samples;Min_cycle;Max_cycle;Signal;HPM_P1;HPM_P2
2023/11/20 00:00:47;;;;;;;24.45;4.38;;;12.50;99.90;;;;;;5052930;28;20022;-89
2023/11/20 00:03:12;;;;;;;21.63;4.97;;;12.50;99.90;;;;;;5054743;28;20373;-89
2023/11/20 00:05:38;;;;;;;20.42;3.13;;;12.50;99.90;;;;;;5056116;28;20443;-90
2023/11/20 00:08:03;;;;;;;22.63;3.97;;;12.50;99.90;;;;;;5053465;28;20025;-89
2023/11/20 00:10:34;;;;;;;20.83;4.93;;;12.50;99.90;;;;;;5038687;28;20029;-90
2023/11/20 00:12:59;;;;;;;20.08;4.35;;;12.50;99.90;;;;;;5064266;28;20029;-90
2023/11/20 00:15:25;;;;;;;23.85;4.32;;;12.50;99.90;;;;;;5075616;28;20054;-90
2023/11/20 00:17:50;;;;;;;26.23;4.10;;;12.50;99.90;;;;;;5076516;28;20027;-92
2023/11/20 00:20:16;;;;;;;23.52;4.30;;;12.50;99.90;;;;;;5076645;28;20070;-89
2023/11/20 00:22:42;;;;;;;23.13;4.40;;;12.50;99.90;;;;;;5057521;28;20165;-90
2023/11/20 00:25:07;;;;;;;26.52;4.38;;;12.50;99.90;;;;;;5056432;28;20496;-90
2023/11/20 00:27:33;;;;;;;24.15;4.13;;;12.50;99.90;;;;;;5056701;28;20354;-89
2023/11/20 00:29:58;;;;;;;19.17;4.40;;;12.50;99.90;;;;;;5043129;28;20085;-88
2023/11/20 00:32:25;;;;;;;26.70;4.70;;;12.50;99.90;;;;;;5042376;28;20432;-89
2023/11/20 00:34:51;;;;;;;25.17;3.75;;;12.50;99.90;;;;;;5055480;28;20511;-90
2023/11/20 00:37:18;;;;;;;19.35;3.85;;;12.50;99.90;;;;;;5071503;28;20020;-89
2023/11/20 00:39:43;;;;;;;29.27;5.40;;;12.40;99.90;;;;;;5075878;28;20032;-88
2023/11/20 00:42:09;;;;;;;27.20;5.00;;;12.40;99.90;;;;;;5075547;28;20482;-90
2023/11/20 00:44:34;;;;;;;31.85;4.85;;;12.30;99.90;;;;;;5075470;28;20086;-90
2023/11/20 00:47:00;;;;;;;20.60;3.45;;;12.10;99.90;;;;;;5076313;28;20048;-89
2023/11/20 00:49:26;;;;;;;18.27;3.30;;;12.00;99.90;;;;;;5059448;28;20040;-89
2023/11/20 00:51:51;;;;;;;25.35;4.38;;;11.90;99.90;;;;;;5045995;28;20024;-90
2023/11/20 00:54:17;;;;;;;21.88;4.18;;;11.90;99.90;;;;;;5055990;28;20040;-89
2023/11/20 00:56:42;;;;;;;26.10;4.25;;;11.90;99.90;;;;;;5054888;28;20040;-89
2023/11/20 00:59:08;;;;;;;26.40;4.22;;;11.90;99.90;;;;;;5055291;28;20048;-91
2023/11/20 01:01:37;;;;;;;27.45;4.43;;;11.80;99.90;;;;;;5053983;28;20476;-90
2023/11/20 01:04:03;;;;;;;29.05;4.60;;;11.90;99.90;;;;;;5055391;28;20037;-89
2023/11/20 01:06:29;;;;;;;28.92;5.25;;;11.90;99.90;;;;;;5053426;28;20116;-90
2023/11/20 01:08:55;;;;;;;21.60;4.40;;;12.00;99.90;;;;;;5054262;28;20525;-89
2023/11/20 01:11:20;;;;;;;28.17;4.65;;;11.80;99.90;;;;;;5054783;28;20223;-89
2023/11/20 01:13:46;;;;;;;24.60;4.70;;;11.90;99.90;;;;;;5052144;28;20124;-89
2023/11/20 01:16:12;;;;;;;19.63;3.25;;;11.90;99.90;;;;;;5054905;28;20364;-89
2023/11/20 01:18:37;;;;;;;20.35;4.32;;;11.90;99.90;;;;;;5038324;28;20034;-90
2023/11/20 01:21:04;;;;;;;28.55;4.80;;;11.90;99.90;;;;;;5034976;28;20544;-89
2023/11/20 01:23:29;;;;;;;24.85;4.25;;;12.00;99.90;;;;;;5053546;28;20035;-90
2023/11/20 01:25:55;;;;;;;21.13;4.65;;;12.00;99.90;;;;;;5054565;28;20025;-90
2023/11/20 01:28:21;;;;;;;23.33;4.10;;;12.00;99.90;;;;;;5054204;28;20049;-90
2023/11/20 01:30:47;;;;;;;25.52;4.65;;;12.00;99.90;;;;;;5055240;28;20033;-88
2023/11/20 01:33:13;;;;;;;28.95;3.85;;;12.00;99.90;;;;;;5053414;28;20044;-90
2023/11/20 01:35:38;;;;;;;20.48;4.43;;;12.10;99.90;;;;;;5052564;28;20029;-90
2023/11/20 01:38:04;;;;;;;17.35;4.40;;;12.10;99.90;;;;;;5054416;28;20028;-89
2023/11/20 01:40:29;;;;;;;24.15;4.28;;;12.10;99.90;;;;;;5053369;28;20162;-90
2023/11/20 01:42:55;;;;;;;24.92;4.30;;;12.10;99.90;;;;;;5055080;28;20025;-90
2023/11/20 01:45:20;;;;;;;18.88;3.97;;;12.00;99.90;;;;;;5053948;28;20037;-90
2023/11/20 01:47:47;;;;;;;22.27;3.80;;;11.90;99.90;;;;;;5054340;28;20033;-89
2023/11/20 01:50:14;;;;;;;28.30;4.63;;;11.90;99.90;;;;;;5055051;28;20052;-90
2023/11/20 01:52:42;;;;;;;34.08;5.10;;;11.90;99.90;;;;;;5051368;28;20033;-90
2023/11/20 01:55:09;;;;;;;30.02;5.47;;;11.80;99.90;;;;;;5034034;28;20125;-90
2023/11/20 01:57:36;;;;;;;25.98;4.30;;;11.80;99.90;;;;;;5034680;28;20425;-89
2023/11/20 02:00:08;;;;;;;27.35;3.72;;;11.70;99.90;;;;;;5046909;28;20025;-89
2023/11/20 02:02:38;;;;;;;22.70;4.07;;;11.80;99.90;;;;;;5053700;28;20055;-90
2023/11/20 02:05:05;;;;;;;29.92;4.18;;;11.80;99.90;;;;;;5055097;28;20082;-90
2023/11/20 02:07:32;;;;;;;37.80;5.38;;;11.80;99.90;;;;;;5054605;28;20060;-90
2023/11/20 02:09:58;;;;;;;24.00;4.70;;;11.80;99.90;;;;;;5056199;28;20056;-90
2023/11/20 02:12:24;;;;;;;26.80;4.47;;;11.90;99.90;;;;;;5055798;28;20044;-89
2023/11/20 02:14:49;;;;;;;26.67;4.70;;;11.90;99.90;;;;;;5054709;28;20033;-90
2023/11/20 02:17:15;;;;;;;21.25;4.68;;;11.90;99.90;;;;;;5052313;28;20017;-90
2023/11/20 02:19:47;;;;;;;24.48;4.65;;;11.90;99.90;;;;;;5035494;28;20118;-90
2023/11/20 02:22:13;;;;;;;17.27;3.55;;;11.90;99.90;;;;;;5042434;28;20389;-90
2023/11/20 02:24:39;;;;;;;23.35;4.63;;;12.00;99.90;;;;;;5054090;28;20037;-90
2023/11/20 02:27:28;;;;;;;29.40;5.07;;;11.90;99.90;;;;;;5054470;28;20465;-88
2023/11/20 02:29:54;;;;;;;33.97;4.90;;;11.90;99.90;;;;;;5053159;28;20024;-90
2023/11/20 02:32:23;;;;;;;23.30;4.60;;;11.80;99.90;;;;;;5054156;28;20214;-90
2023/11/20 02:34:52;;;;;;;24.05;4.20;;;11.80;99.90;;;;;;5054206;28;20053;-88
2023/11/20 02:37:17;;;;;;;27.88;5.00;;;11.80;99.90;;;;;;5051703;28;20021;-90
2023/11/20 02:39:48;;;;;;;23.63;3.95;;;11.70;99.90;;;;;;5052324;28;20055;-90
2023/11/20 02:42:14;;;;;;;23.88;4.43;;;11.70;99.90;;;;;;5053911;28;20032;-90
2023/11/20 02:44:39;;;;;;;25.65;4.63;;;11.70;99.90;;;;;;5051714;28;20401;-90
2023/11/20 02:47:06;;;;;;;38.97;4.75;;;11.70;99.90;;;;;;5053653;28;20385;-89
2023/11/20 02:49:34;;;;;;;25.85;3.55;;;11.70;99.90;;;;;;5052019;28;20033;-90
2023/11/20 02:52:05;;;;;;;19.67;3.72;;;11.70;99.90;;;;;;5053012;28;20056;-89
2023/11/20 02:54:31;;;;;;;25.00;4.93;;;11.70;99.90;;;;;;5052979;28;20068;-91
2023/11/20 02:56:59;;;;;;;22.95;3.83;;;11.80;99.90;;;;;;5052988;28;20025;-90
2023/11/20 02:59:26;;;;;;;24.85;4.60;;;11.80;99.90;;;;;;5049329;28;20130;-90
2023/11/20 03:01:52;;;;;;;25.88;4.47;;;12.80;99.90;;;;;;5053651;28;20029;-90
2023/11/20 03:04:18;;;;;;;37.63;5.05;;;11.90;99.90;;;;;;5051928;28;20385;-91
2023/11/20 03:06:44;;;;;;;18.48;4.22;;;11.90;99.90;;;;;;5053182;28;20029;-90
2023/11/20 03:09:10;;;;;;;23.98;4.60;;;11.90;99.90;;;;;;5052903;28;20028;-90
2023/11/20 03:11:35;;;;;;;25.48;4.28;;;12.00;99.90;;;;;;5052679;28;20433;-90
2023/11/20 03:14:01;;;;;;;20.77;4.15;;;12.00;99.90;;;;;;5051361;28;20443;-89
2023/11/20 03:16:28;;;;;;;16.98;4.40;;;12.00;99.90;;;;;;5052931;28;20078;-89
2023/11/20 03:18:53;;;;;;;26.05;3.47;;;12.00;99.90;;;;;;5048746;28;20105;-90
2023/11/20 03:21:19;;;;;;;36.42;4.75;;;11.90;99.90;;;;;;5053056;28;20068;-90
2023/11/20 03:23:44;;;;;;;18.95;4.82;;;11.90;99.90;;;;;;5037176;28;20124;-90
2023/11/20 03:26:10;;;;;;;26.02;4.53;;;11.90;99.90;;;;;;5032790;28;20033;-90
2023/11/20 03:28:38;;;;;;;31.35;5.65;;;11.90;99.90;;;;;;5033153;28;20474;-89
2023/11/20 03:31:04;;;;;;;17.13;3.53;;;11.90;99.90;;;;;;5033589;28;20112;-90
2023/11/20 03:33:29;;;;;;;32.35;4.88;;;11.90;99.90;;;;;;5041409;28;20025;-90
2023/11/20 03:35:55;;;;;;;22.73;4.13;;;11.90;99.90;;;;;;5052968;28;20028;-90
2023/11/20 03:38:20;;;;;;;29.75;4.80;;;11.90;99.90;;;;;;5048394;28;20024;-90
2023/11/20 03:40:47;;;;;;;19.05;4.45;;;11.90;99.90;;;;;;5052732;28;20043;-90
2023/11/20 03:43:12;;;;;;;25.55;4.70;;;12.50;99.90;;;;;;5046236;28;20374;-90
2023/11/20 03:45:38;;;;;;;20.58;3.83;;;11.90;99.90;;;;;;5032533;28;20026;-89
2023/11/20 03:48:04;;;;;;;22.95;3.45;;;11.90;99.90;;;;;;5032648;28;20021;-91
2023/11/20 03:50:29;;;;;;;26.27;5.38;;;11.80;99.90;;;;;;5032430;28;20034;-90
2023/11/20 03:52:55;;;;;;;26.05;4.38;;;11.80;99.90;;;;;;5050755;28;20108;-88
2023/11/20 03:55:20;;;;;;;26.25;4.00;;;11.80;99.90;;;;;;5053038;28;20025;-90
2023/11/20 03:57:46;;;;;;;20.85;4.35;;;11.80;99.90;;;;;;5052249;28;20029;-89
2023/11/20 04:00:13;;;;;;;16.00;4.50;;;11.80;99.90;;;;;;5039674;28;20021;-89
2023/11/20 04:02:38;;;;;;;15.32;3.90;;;11.80;99.90;;;;;;5039742;28;20087;-88
2023/11/20 04:05:05;;;;;;;18.58;3.95;;;11.80;99.90;;;;;;5031840;28;20481;-90
2023/11/20 04:07:30;;;;;;;20.55;3.97;;;11.70;99.90;;;;;;5046577;28;20049;-90
2023/11/20 04:09:56;;;;;;;21.40;3.85;;;11.70;99.90;;;;;;5052363;28;20068;-90
2023/11/20 04:12:21;;;;;;;25.92;4.30;;;11.80;99.90;;;;;;5051594;28;20025;-90
2023/11/20 04:14:48;;;;;;;25.98;4.80;;;11.80;99.90;;;;;;5051864;28;20403;-90
2023/11/20 04:17:14;;;;;;;21.50;3.67;;;11.80;99.90;;;;;;5052619;28;20033;-90
2023/11/20 04:19:39;;;;;;;20.23;3.78;;;11.70;99.90;;;;;;5052019;28;20024;-90
2023/11/20 04:22:07;;;;;;;25.23;3.55;;;11.80;99.90;;;;;;5051624;28;20082;-90
2023/11/20 04:24:32;;;;;;;29.20;4.70;;;11.80;99.90;;;;;;5051419;28;20111;-90
2023/11/20 04:26:58;;;;;;;23.70;4.68;;;11.80;99.90;;;;;;5050162;28;20041;-89
2023/11/20 04:29:23;;;;;;;18.00;4.20;;;11.80;99.90;;;;;;5051330;28;20050;-90
2023/11/20 04:31:49;;;;;;;25.85;4.78;;;11.80;99.90;;;;;;5052321;28;20087;-90
2023/11/20 04:34:15;;;;;;;30.83;5.13;;;11.90;99.90;;;;;;5052430;28;20469;-89
2023/11/20 04:36:40;;;;;;;18.90;3.80;;;11.90;99.90;;;;;;5050823;28;20079;-89
2023/11/20 04:39:06;;;;;;;26.20;4.38;;;11.90;99.90;;;;;;5052390;28;20033;-89
2023/11/20 04:41:33;;;;;;;29.98;5.50;;;11.90;99.90;;;;;;5052659;28;20021;-90
2023/11/20 04:43:58;;;;;;;20.23;3.70;;;12.00;99.90;;;;;;5051971;28;20037;-92
2023/11/20 04:46:24;;;;;;;29.88;5.13;;;12.00;99.90;;;;;;5050518;28;20052;-91
2023/11/20 04:48:50;;;;;;;20.30;4.05;;;12.50;99.90;;;;;;5050398;28;20087;-91
2023/11/20 04:51:20;;;;;;;21.58;3.45;;;11.90;99.90;;;;;;5054373;28;20045;-90
2023/11/20 04:53:45;;;;;;;19.97;3.60;;;12.50;99.90;;;;;;5055172;28;20049;-90
2023/11/20 04:56:11;;;;;;;25.77;4.32;;;12.00;99.90;;;;;;5054958;28;20021;-89
2023/11/20 04:58:36;;;;;;;29.08;4.63;;;11.90;99.90;;;;;;5053950;28;20465;-89
2023/11/20 05:01:05;;;;;;;29.00;3.67;;;11.90;99.90;;;;;;5055964;28;20025;-90
2023/11/20 05:03:30;;;;;;;21.85;4.20;;;12.00;99.90;;;;;;5047607;28;20112;-89
2023/11/20 05:05:56;;;;;;;20.17;4.07;;;11.90;99.90;;;;;;5035896;28;20116;-90
2023/11/20 05:08:22;;;;;;;27.50;4.35;;;11.90;99.90;;;;;;5046093;28;20029;-90
2023/11/20 05:10:47;;;;;;;25.48;4.50;;;11.90;99.90;;;;;;5054408;28;20032;-89
2023/11/20 05:13:16;;;;;;;20.58;4.32;;;11.90;99.90;;;;;;5054979;28;20029;-90
2023/11/20 05:15:42;;;;;;;26.30;3.65;;;11.90;99.90;;;;;;5055304;28;20086;-89
2023/11/20 05:18:08;;;;;;;21.10;4.15;;;11.90;99.90;;;;;;5054235;28;20017;-90
2023/11/20 05:20:33;;;;;;;24.48;4.18;;;12.00;99.90;;;;;;5052643;28;20115;-90
2023/11/20 05:22:59;;;;;;;27.00;4.40;;;11.90;99.90;;;;;;5056208;28;20017;-93
2023/11/20 05:25:25;;;;;;;33.53;5.85;;;11.90;99.90;;;;;;5054924;28;20035;-91
2023/11/20 05:27:51;;;;;;;28.55;5.00;;;11.90;99.90;;;;;;5046210;28;20033;-91
2023/11/20 05:30:16;;;;;;;19.33;2.92;;;12.00;99.90;;;;;;5045983;28;20025;-89
2023/11/20 05:32:42;;;;;;;23.35;4.40;;;11.90;99.90;;;;;;5054365;28;20064;-90
2023/11/20 05:35:08;;;;;;;24.10;3.97;;;11.90;99.90;;;;;;5054735;28;20055;-90
2023/11/20 05:37:34;;;;;;;26.95;4.78;;;11.90;99.90;;;;;;5053110;28;20025;-90
2023/11/20 05:40:00;;;;;;;20.83;4.15;;;12.00;99.90;;;;;;5054145;28;20432;-90
2023/11/20 05:42:25;;;;;;;23.83;3.80;;;11.90;99.90;;;;;;5055918;28;20040;-90
2023/11/20 05:44:52;;;;;;;22.88;4.22;;;11.90;99.90;;;;;;5055372;28;20037;-89
2023/11/20 05:47:17;;;;;;;21.67;4.93;;;11.80;99.90;;;;;;5054855;28;20381;-89
2023/11/20 05:49:43;;;;;;;27.83;4.20;;;11.80;99.90;;;;;;5053344;28;20032;-90
2023/11/20 05:52:09;;;;;;;15.95;3.63;;;11.80;99.90;;;;;;5053917;28;20366;-90
2023/11/20 05:54:34;;;;;;;20.88;4.35;;;11.80;99.90;;;;;;5040729;28;20079;-90
2023/11/20 05:57:00;;;;;;;19.42;3.67;;;11.70;99.90;;;;;;5034725;28;20068;-90
2023/11/20 05:59:26;;;;;;;22.90;4.30;;;11.70;99.90;;;;;;5034811;28;20037;-91
2023/11/20 06:01:51;;;;;;;29.98;5.05;;;11.70;99.90;;;;;;5047122;28;20049;-89
2023/11/20 06:04:17;;;;;;;18.77;4.38;;;11.60;99.90;;;;;;5052837;28;20392;-88
2023/11/20 06:06:42;;;;;;;30.38;5.35;;;11.60;99.90;;;;;;5041866;28;20384;-89
2023/11/20 06:09:10;;;;;;;21.63;3.95;;;11.50;99.90;;;;;;5051160;28;20114;-88
2023/11/20 06:11:36;;;;;;;26.08;4.45;;;11.50;99.90;;;;;;5038310;28;20025;-88
2023/11/20 06:14:03;;;;;;;28.05;4.43;;;11.50;99.90;;;;;;5039941;28;20110;-89
2023/11/20 06:16:29;;;;;;;27.52;5.20;;;11.40;99.90;;;;;;5044830;28;20036;-90
2023/11/20 06:18:55;;;;;;;21.63;4.03;;;11.50;99.90;;;;;;5045826;28;20117;-90
2023/11/20 06:21:21;;;;;;;23.95;4.78;;;11.50;99.90;;;;;;5051236;28;20391;-90
2023/11/20 06:23:46;;;;;;;35.28;5.45;;;11.50;99.90;;;;;;5048052;28;20603;-90
2023/11/20 06:26:13;;;;;;;26.25;4.25;;;11.50;99.90;;;;;;5049393;28;20049;-90
2023/11/20 06:28:41;;;;;;;31.23;3.83;;;11.50;99.90;;;;;;5052426;28;20025;-89
2023/11/20 06:31:07;;;;;;;18.48;4.60;;;11.50;99.90;;;;;;5051260;28;20033;-89
2023/11/20 06:33:33;;;;;;;27.27;4.30;;;11.50;99.90;;;;;;5050793;28;20044;-89
2023/11/20 06:35:58;;;;;;;23.95;4.55;;;11.50;99.90;;;;;;5049390;28;20021;-89
2023/11/20 06:38:24;;;;;;;27.35;5.03;;;11.50;99.90;;;;;;5048669;28;20017;-88
2023/11/20 06:40:50;;;;;;;25.88;4.75;;;11.50;99.90;;;;;;5053712;28;20031;-89
2023/11/20 06:43:15;;;;;;;25.17;5.43;;;11.50;99.90;;;;;;5057560;28;20040;-90
2023/11/20 06:45:41;;;;;;;30.35;4.47;;;11.50;99.90;;;;;;5052855;28;20039;-90
2023/11/20 06:48:07;;;;;;;14.65;4.30;;;11.50;99.90;;;;;;5054205;28;20066;-91
2023/11/20 06:50:32;;;;;;;22.85;4.35;;;11.50;99.90;;;;;;5053313;28;20051;-88
2023/11/20 06:52:59;;;;;;;27.70;5.00;;;11.50;99.90;;;;;;5053583;28;20021;-90
2023/11/20 06:55:25;;;;;;;30.75;5.38;;;11.50;99.90;;;;;;5044620;28;20489;-88
2023/11/20 06:57:50;;;;;;;29.80;5.47;;;11.50;99.90;;;;;;5051735;28;20044;-89
2023/11/20 07:00:18;;;;;;;27.33;4.60;;;11.50;99.90;;;;;;5049448;28;20033;-89
2023/11/20 07:02:44;;;;;;;29.20;5.35;;;11.50;99.90;;;;;;5049010;28;20031;-89
2023/11/20 07:05:14;;;;;;;19.13;3.63;;;11.50;99.90;;;;;;5044538;28;20045;-89
2023/11/20 07:07:50;;;;;;;31.67;5.18;;;11.50;99.90;;;;;;5046141;28;20032;-87
2023/11/20 07:10:16;;;;;;;23.05;4.28;;;11.40;99.90;;;;;;5053141;28;20310;-91
2023/11/20 07:12:42;;;;;;;19.30;3.88;;;11.40;99.90;;;;;;5052633;28;20020;-89
2023/11/20 07:15:08;;;;;;;28.52;5.20;;;11.50;99.90;;;;;;5050637;28;20037;-91
2023/11/20 07:17:35;;;;;;;31.65;5.25;;;11.50;99.90;;;;;;5041587;28;20022;-92
2023/11/20 07:20:02;;;;;;;30.45;4.85;;;11.50;99.90;;;;;;5035098;28;20088;-91
2023/11/20 07:22:28;;;;;;;27.95;5.07;;;11.40;99.90;;;;;;5033956;28;20032;-92
2023/11/20 07:24:54;;;;;;;21.92;4.82;;;11.50;99.90;;;;;;5036186;28;20034;-93
2023/11/20 07:27:20;;;;;;;27.13;5.10;;;11.40;99.90;;;;;;5036394;28;20045;-94
2023/11/20 07:29:46;;;;;;;38.08;6.60;;;11.40;99.90;;;;;;5039610;28;20025;-94
2023/11/20 07:32:13;;;;;;;22.88;4.60;;;11.30;99.90;;;;;;5055486;28;20104;-93
2023/11/20 07:34:38;;;;;;;27.13;5.07;;;11.40;99.90;;;;;;5053538;28;20055;-90
2023/11/20 07:37:04;;;;;;;33.53;5.50;;;11.30;99.90;;;;;;5052592;28;20021;-92
2023/11/20 07:39:30;;;;;;;31.83;4.70;;;11.30;99.90;;;;;;5040365;28;20036;-89
2023/11/20 07:41:56;;;;;;;28.20;4.53;;;11.30;99.90;;;;;;5032753;28;20521;-87
2023/11/20 07:44:22;;;;;;;33.58;5.28;;;11.30;99.90;;;;;;5032355;28;20033;-89
2023/11/20 07:46:48;;;;;;;27.95;5.75;;;11.20;99.90;;;;;;5031773;28;20041;-88
2023/11/20 07:49:14;;;;;;;25.60;4.57;;;11.30;99.90;;;;;;5034048;28;20056;-88
2023/11/20 07:51:40;;;;;;;24.45;5.30;;;11.30;99.90;;;;;;5055409;28;20468;-89
2023/11/20 07:54:07;;;;;;;20.80;5.18;;;11.30;99.90;;;;;;5056560;28;20061;-89
2023/11/20 07:56:33;;;;;;;23.92;4.90;;;11.30;99.90;;;;;;5059199;28;20029;-90
2023/11/20 07:58:59;;;;;;;32.33;5.43;;;11.30;99.90;;;;;;5046337;28;20044;-87
2023/11/20 08:01:25;;;;;;;33.13;5.18;;;11.30;99.90;;;;;;5052436;28;20027;-91
2023/11/20 08:03:51;;;;;;;22.85;4.50;;;11.20;99.90;;;;;;5049708;28;20124;-91
2023/11/20 08:06:19;;;;;;;32.33;4.80;;;11.20;99.90;;;;;;5057729;28;20124;-93
2023/11/20 08:08:45;;;;;;;27.38;5.00;;;11.20;99.90;;;;;;5077712;28;20103;-89
2023/11/20 08:11:10;;;;;;;20.33;3.97;;;11.20;99.90;;;;;;5072022;28;20063;-88
2023/11/20 08:13:36;;;;;;;24.70;4.97;;;11.20;99.90;;;;;;5053720;28;20029;-92
2023/11/20 08:16:03;;;;;;;28.08;5.72;;;11.20;99.90;;;;;;5053096;28;20032;-92
2023/11/20 08:18:28;;;;;;;28.90;5.35;;;11.10;99.90;;;;;;5053003;28;20025;-92
2023/11/20 08:20:54;;;;;;;23.02;5.10;;;11.10;99.90;;;;;;5056200;28;20016;-89
2023/11/20 08:23:20;;;;;;;33.38;4.50;;;11.10;99.90;;;;;;5049798;28;20028;-89
2023/11/20 08:25:46;;;;;;;21.92;4.10;;;11.20;99.90;;;;;;5056127;28;20040;-89
2023/11/20 08:28:11;;;;;;;25.20;5.20;;;11.20;99.90;;;;;;5055372;28;20033;-89
2023/11/20 08:30:37;;;;;;;23.70;4.22;;;11.20;99.90;;;;;;5055763;28;20056;-87
2023/11/20 08:33:03;;;;;;;37.15;4.65;;;11.20;99.90;;;;;;5064919;28;20028;-91
2023/11/20 08:35:28;;;;;;;16.60;3.13;;;11.20;99.90;;;;;;5061960;28;20027;-89
2023/11/20 08:37:54;;;;;;;28.70;5.65;;;11.20;99.90;;;;;;5062875;28;20096;-86
2023/11/20 08:40:20;;;;;;;24.38;4.72;;;11.20;99.90;;;;;;5057956;28;20025;-86
2023/11/20 08:42:46;;;;;;;23.70;4.28;;;11.20;99.90;;;;;;5053931;28;20036;-88
2023/11/20 08:45:12;;;;;;;23.15;4.95;;;11.20;99.90;;;;;;5055346;28;20099;-89
2023/11/20 08:47:39;;;;;;;31.27;5.88;;;11.20;99.90;;;;;;5054080;28;20083;-89
2023/11/20 08:50:06;;;;;;;30.27;5.30;;;11.20;99.90;;;;;;5053742;28;20539;-89
2023/11/20 08:52:32;;;;;;;23.33;5.25;;;11.20;99.90;;;;;;5065750;28;20024;-88
2023/11/20 08:54:58;;;;;;;25.30;4.97;;;11.20;99.90;;;;;;5066705;28;20122;-87
2023/11/20 08:57:23;;;;;;;27.17;4.75;;;11.20;99.90;;;;;;5052812;28;20108;-88
2023/11/20 08:59:49;;;;;;;24.42;5.13;;;11.20;99.90;;;;;;5059971;28;20202;-91
2023/11/20 09:02:15;;;;;;;21.75;4.15;;;11.20;99.90;;;;;;5056299;28;20083;-91
2023/11/20 09:04:41;;;;;;;20.52;4.18;;;11.30;99.90;;;;;;5056040;28;20518;-90
2023/11/20 09:07:08;;;;;;;24.90;5.00;;;11.30;99.90;;;;;;5054813;28;20029;-90
2023/11/20 09:09:35;;;;;;;26.67;5.75;;;11.20;99.90;;;;;;5057537;28;20037;-90
2023/11/20 09:12:01;;;;;;;30.02;5.30;;;11.20;99.90;;;;;;5051024;28;20090;-91
2023/11/20 09:14:28;;;;;;;33.00;4.82;;;11.20;99.90;;;;;;5053824;28;20036;-90
2023/11/20 09:16:53;;;;;;;35.75;5.32;;;11.20;99.90;;;;;;5059484;28;20036;-90
2023/11/20 09:19:19;;;;;;;33.78;5.05;;;11.20;99.90;;;;;;5056000;28;20437;-91
2023/11/20 09:21:45;;;;;;;23.00;4.22;;;11.20;99.90;;;;;;5056418;28;20417;-92
2023/11/20 09:24:11;;;;;;;21.73;3.85;;;11.20;99.90;;;;;;5061296;28;20033;-91
2023/11/20 09:26:36;;;;;;;20.92;4.18;;;11.20;99.90;;;;;;5052990;28;20362;-87
2023/11/20 09:29:06;;;;;;;24.38;5.38;;;11.20;99.90;;;;;;5055381;28;20550;-88
2023/11/20 09:31:34;;;;;;;26.97;4.77;;;11.20;99.90;;;;;;5069415;28;20485;-86
2023/11/20 09:34:00;;;;;;;24.58;4.43;;;11.20;99.90;;;;;;5053001;28;20279;-87
2023/11/20 09:36:26;;;;;;;39.30;6.32;;;11.30;99.90;;;;;;5065405;28;20484;-87
2023/11/20 09:38:51;;;;;;;22.63;4.13;;;11.30;99.90;;;;;;5051052;28;20031;-84
2023/11/20 09:41:17;;;;;;;34.38;4.65;;;11.30;99.90;;;;;;5051671;28;20397;-85
2023/11/20 09:43:46;;;;;;;26.55;4.65;;;11.40;99.90;;;;;;5045826;28;20464;-85
2023/11/20 09:46:14;;;;;;;23.60;4.50;;;11.40;99.90;;;;;;5042975;28;20026;-85
2023/11/20 09:48:42;;;;;;;23.35;3.67;;;11.40;99.90;;;;;;5054261;28;20017;-86
2023/11/20 09:51:09;;;;;;;25.58;4.45;;;11.40;99.90;;;;;;5052992;28;20054;-85
2023/11/20 09:53:37;;;;;;;27.38;4.75;;;11.40;99.90;;;;;;5050674;28;20060;-85
2023/11/20 09:56:04;;;;;;;30.33;3.97;;;11.40;99.90;;;;;;5055932;28;20045;-86
2023/11/20 09:58:33;;;;;;;35.47;4.25;;;11.50;99.90;;;;;;5048620;28;20029;-86
2023/11/20 10:01:06;;;;;;;21.08;4.07;;;11.50;99.90;;;;;;5043301;28;20025;-85
2023/11/20 10:03:36;;;;;;;24.33;5.20;;;11.50;99.90;;;;;;5051482;28;20024;-86
2023/11/20 10:06:05;;;;;;;16.55;4.30;;;11.40;99.90;;;;;;5046823;28;20461;-85
2023/11/20 10:08:34;;;;;;;23.83;4.50;;;11.50;99.90;;;;;;5050025;28;20031;-85
2023/11/20 10:11:01;;;;;;;30.08;4.10;;;11.60;99.90;;;;;;5049148;28;20108;-86
2023/11/20 10:13:26;;;;;;;27.70;3.90;;;11.60;99.90;;;;;;5041163;28;20397;-86
2023/11/20 10:15:53;;;;;;;27.00;4.50;;;11.60;99.90;;;;;;5041706;28;20357;-85
2023/11/20 10:18:20;;;;;;;23.15;4.60;;;11.60;99.90;;;;;;5049493;28;20037;-86
2023/11/20 10:20:50;;;;;;;20.83;4.38;;;11.60;99.90;;;;;;5049410;28;20477;-86
2023/11/20 10:23:17;;;;;;;26.00;4.82;;;11.60;99.90;;;;;;5051928;28;20039;-86
2023/11/20 10:25:46;;;;;;;20.42;4.45;;;11.60;99.90;;;;;;5045192;28;20528;-86
2023/11/20 10:28:14;;;;;;;20.83;3.95;;;11.60;99.90;;;;;;5050373;28;20024;-85
2023/11/20 10:30:41;;;;;;;27.52;3.40;;;11.60;99.90;;;;;;5052254;28;20037;-85
2023/11/20 10:33:15;;;;;;;27.77;5.43;;;11.70;99.90;;;;;;5050245;28;20473;-90
2023/11/20 10:35:41;;;;;;;29.80;4.28;;;11.60;99.90;;;;;;5053581;28;20021;-88
2023/11/20 10:38:07;;;;;;;14.02;3.88;;;11.70;99.90;;;;;;5055662;28;20035;-87
2023/11/20 10:40:32;;;;;;;28.95;5.05;;;11.70;99.90;;;;;;5062078;28;20043;-89
2023/11/20 10:42:58;;;;;;;34.35;4.68;;;11.70;99.90;;;;;;5058782;28;20025;-89
2023/11/20 10:45:24;;;;;;;18.90;3.63;;;11.80;99.90;;;;;;5053538;28;20454;-88
2023/11/20 10:47:50;;;;;;;19.10;3.85;;;11.70;99.90;;;;;;5053461;28;20108;-88
2023/11/20 10:50:17;;;;;;;13.85;3.25;;;11.70;99.90;;;;;;5047074;28;20029;-89
2023/11/20 10:52:46;;;;;;;14.85;3.45;;;11.70;99.90;;;;;;5048939;28;20021;-89
2023/11/20 10:55:12;;;;;;;22.30;3.97;;;11.70;99.90;;;;;;5051515;28;20056;-91
2023/11/20 10:57:39;;;;;;;18.08;3.83;;;11.80;99.90;;;;;;5073346;28;20098;-91
2023/11/20 11:00:15;;;;;;;28.13;5.03;;;11.80;99.90;;;;;;5063123;28;20033;-91
2023/11/20 11:02:45;;;;;;;23.55;4.45;;;11.80;99.90;;;;;;5033275;28;20079;-89
2023/11/20 11:05:12;;;;;;;27.55;4.35;;;11.80;99.90;;;;;;5034315;28;20038;-89
2023/11/20 11:07:42;;;;;;;17.02;3.38;;;11.90;99.90;;;;;;5043734;28;20025;-89
2023/11/20 11:10:10;;;;;;;18.50;3.40;;;11.90;99.90;;;;;;5052787;28;20043;-90
2023/11/20 11:12:42;;;;;;;17.23;3.95;;;11.90;99.90;;;;;;5053505;28;20025;-89
2023/11/20 11:15:13;;;;;;;18.90;3.53;;;11.90;99.90;;;;;;5045363;28;20305;-89
2023/11/20 11:17:57;;;;;;;22.13;4.53;;;12.00;99.90;;;;;;5072414;28;20031;-89
2023/11/20 11:20:31;;;;;;;17.23;4.43;;;12.00;99.90;;;;;;5051009;28;20044;-88
2023/11/20 11:23:02;;;;;;;20.00;4.25;;;12.00;99.90;;;;;;5056228;28;20043;-87
2023/11/20 11:25:33;;;;;;;27.42;4.07;;;12.00;99.90;;;;;;5048435;28;20038;-89
2023/11/20 11:28:02;;;;;;;21.48;3.78;;;12.00;99.90;;;;;;5054057;28;20420;-89
2023/11/20 11:30:36;;;;;;;20.33;3.65;;;12.10;99.90;;;;;;5053388;28;20111;-88
2023/11/20 11:33:32;;;;;;;21.10;4.60;;;12.10;99.90;;;;;;5054592;28;20056;-88
2023/11/20 11:36:21;;;;;;;28.17;4.88;;;12.10;99.90;;;;;;5049883;28;20029;-86
2023/11/20 11:38:50;;;;;;;13.65;3.67;;;12.10;99.90;;;;;;5049005;28;20091;-87
2023/11/20 11:41:37;;;;;;;26.23;3.97;;;12.10;99.90;;;;;;5050077;28;20078;-89
2023/11/20 11:44:12;;;;;;;27.30;4.07;;;12.10;99.90;;;;;;5048767;28;20153;-87
2023/11/20 11:46:38;;;;;;;23.10;3.97;;;12.10;99.90;;;;;;5045760;28;20032;-90
2023/11/20 11:49:20;;;;;;;18.48;4.53;;;12.10;99.90;;;;;;5051598;28;20052;-92
2023/11/20 11:51:56;;;;;;;19.13;3.67;;;12.20;99.90;;;;;;5063467;28;20071;-90
2023/11/20 11:54:24;;;;;;;18.80;3.70;;;12.20;99.90;;;;;;5054843;28;20045;-91
2023/11/20 11:56:49;;;;;;;22.67;3.60;;;12.30;99.90;;;;;;5052849;28;20033;-91
2023/11/20 11:59:26;;;;;;;17.52;4.20;;;12.30;99.90;;;;;;5054067;28;20033;-91
2023/11/20 12:01:51;;;;;;;17.77;4.20;;;12.30;99.90;;;;;;5056693;28;20025;-90
2023/11/20 12:04:58;;;;;;;16.38;3.58;;;12.30;99.90;;;;;;5056677;28;20033;-92
2023/11/20 12:07:45;;;;;;;25.73;4.10;;;12.40;99.90;;;;;;5056157;28;20021;-92
2023/11/20 12:10:11;;;;;;;15.73;3.63;;;12.40;99.90;;;;;;5057409;28;20059;-90
2023/11/20 12:13:02;;;;;;;17.90;4.05;;;12.40;99.90;;;;;;5055972;28;20524;-91
2023/11/20 12:15:43;;;;;;;24.05;4.00;;;12.40;99.90;;;;;;5044857;28;20033;-91
2023/11/20 12:18:29;;;;;;;16.83;4.10;;;12.40;99.90;;;;;;5068894;28;20055;-88
2023/11/20 12:20:57;;;;;;;16.25;3.47;;;12.40;99.90;;;;;;5044365;28;20036;-92
2023/11/20 12:23:36;;;;;;;15.23;3.13;;;12.40;99.90;;;;;;5051652;28;20048;-87
2023/11/20 12:26:04;;;;;;;18.60;3.30;;;12.40;99.90;;;;;;5049257;28;20515;-84
2023/11/20 12:28:31;;;;;;;18.23;3.40;;;12.50;99.90;;;;;;5044642;28;20491;-93
2023/11/20 12:31:00;;;;;;;16.13;3.05;;;13.10;99.90;;;;;;5062124;28;20021;-93
2023/11/20 12:33:25;;;;;;;18.67;4.50;;;12.90;99.90;;;;;;5055275;28;20021;-88
2023/11/20 12:35:55;;;;;;;13.80;2.92;;;12.60;99.90;;;;;;5054969;28;20075;-90